sensor_id;sensor_type;location;lat;lon;timestamp;temperature;humidity
72202;SHT30;60105;54.956;73.412;2022-08-11T00:00:08;19.78;83.30
72202;SHT30;60105;54.956;73.412;2022-08-11T00:02:38;19.78;83.40
72202;SHT30;60105;54.956;73.412;2022-08-11T00:05:10;19.79;83.41
72202;SHT30;60105;54.956;73.412;2022-08-11T00:07:44;19.79;83.36
72202;SHT30;60105;54.956;73.412;2022-08-11T00:10:20;19.86;83.27
72202;SHT30;60105;54.956;73.412;2022-08-11T00:12:57;19.85;83.23
72202;SHT30;60105;54.956;73.412;2022-08-11T00:15:51;19.82;83.55
72202;SHT30;60105;54.956;73.412;2022-08-11T00:18:19;19.79;83.61
72202;SHT30;60105;54.956;73.412;2022-08-11T00:20:50;19.81;83.70
72202;SHT30;60105;54.956;73.412;2022-08-11T00:23:26;19.77;83.93
72202;SHT30;60105;54.956;73.412;2022-08-11T00:25:53;19.75;84.07
72202;SHT30;60105;54.956;73.412;2022-08-11T00:28:31;19.77;84.08
72202;SHT30;60105;54.956;73.412;2022-08-11T00:31:03;19.74;84.15
72202;SHT30;60105;54.956;73.412;2022-08-11T00:33:42;19.78;84.08
72202;SHT30;60105;54.956;73.412;2022-08-11T00:36:16;19.75;84.21
72202;SHT30;60105;54.956;73.412;2022-08-11T00:38:44;19.77;84.16
72202;SHT30;60105;54.956;73.412;2022-08-11T00:47:04;19.75;84.28
72202;SHT30;60105;54.956;73.412;2022-08-11T00:58:28;19.74;84.46
72202;SHT30;60105;54.956;73.412;2022-08-11T01:43:17;20.23;82.67
72202;SHT30;60105;54.956;73.412;2022-08-11T01:46:15;20.25;82.59
72202;SHT30;60105;54.956;73.412;2022-08-11T01:55:10;20.28;82.59
72202;SHT30;60105;54.956;73.412;2022-08-11T01:57:46;20.32;82.45
72202;SHT30;60105;54.956;73.412;2022-08-11T02:00:20;20.36;82.32
72202;SHT30;60105;54.956;73.412;2022-08-11T02:11:40;20.29;82.31
72202;SHT30;60105;54.956;73.412;2022-08-11T02:29:00;20.53;81.52
72202;SHT30;60105;54.956;73.412;2022-08-11T02:34:31;20.67;80.64
72202;SHT30;60105;54.956;73.412;2022-08-11T02:42:55;20.83;80.45
72202;SHT30;60105;54.956;73.412;2022-08-11T02:45:30;20.79;80.19
72202;SHT30;60105;54.956;73.412;2022-08-11T02:51:26;20.80;79.94
72202;SHT30;60105;54.956;73.412;2022-08-11T02:57:36;20.92;79.76
72202;SHT30;60105;54.956;73.412;2022-08-11T03:00:12;21.00;79.85
72202;SHT30;60105;54.956;73.412;2022-08-11T03:03:12;21.00;79.54
72202;SHT30;60105;54.956;73.412;2022-08-11T03:08:53;21.14;78.79
72202;SHT30;60105;54.956;73.412;2022-08-11T03:14:33;21.31;78.39
72202;SHT30;60105;54.956;73.412;2022-08-11T03:17:33;21.32;78.14
72202;SHT30;60105;54.956;73.412;2022-08-11T03:20:18;21.32;78.28
72202;SHT30;60105;54.956;73.412;2022-08-11T03:25:42;21.34;78.04
72202;SHT30;60105;54.956;73.412;2022-08-11T03:28:44;21.29;78.19
72202;SHT30;60105;54.956;73.412;2022-08-11T03:31:28;21.27;78.53
72202;SHT30;60105;54.956;73.412;2022-08-11T03:34:08;21.35;78.30
72202;SHT30;60105;54.956;73.412;2022-08-11T03:45:16;21.62;77.50
72202;SHT30;60105;54.956;73.412;2022-08-11T03:50:57;21.69;77.51
72202;SHT30;60105;54.956;73.412;2022-08-11T04:02:14;21.97;75.98
72202;SHT30;60105;54.956;73.412;2022-08-11T04:08:04;22.06;75.87
72202;SHT30;60105;54.956;73.412;2022-08-11T04:13:59;22.07;76.12
72202;SHT30;60105;54.956;73.412;2022-08-11T04:22:52;22.31;74.93
72202;SHT30;60105;54.956;73.412;2022-08-11T04:25:34;22.43;74.85
72202;SHT30;60105;54.956;73.412;2022-08-11T04:28:43;22.54;73.90
72202;SHT30;60105;54.956;73.412;2022-08-11T04:37:40;22.38;74.46
72202;SHT30;60105;54.956;73.412;2022-08-11T04:47:43;22.43;74.18
72202;SHT30;60105;54.956;73.412;2022-08-11T04:54:04;22.48;74.34
72202;SHT30;60105;54.956;73.412;2022-08-11T04:56:50;22.40;74.68
72202;SHT30;60105;54.956;73.412;2022-08-11T05:00:06;22.51;74.48
72202;SHT30;60105;54.956;73.412;2022-08-11T05:13:09;22.37;75.18
72202;SHT30;60105;54.956;73.412;2022-08-11T05:15:58;22.45;74.87
72202;SHT30;60105;54.956;73.412;2022-08-11T05:18:55;22.47;75.02
72202;SHT30;60105;54.956;73.412;2022-08-11T05:21:45;22.48;74.60
72202;SHT30;60105;54.956;73.412;2022-08-11T05:24:51;22.58;73.99
72202;SHT30;60105;54.956;73.412;2022-08-11T05:27:59;22.71;73.54
72202;SHT30;60105;54.956;73.412;2022-08-11T05:30:52;22.81;73.11
72202;SHT30;60105;54.956;73.412;2022-08-11T05:33:48;22.94;72.24
72202;SHT30;60105;54.956;73.412;2022-08-11T05:36:49;23.19;71.79
72202;SHT30;60105;54.956;73.412;2022-08-11T05:39:22;23.23;71.74
72202;SHT30;60105;54.956;73.412;2022-08-11T05:42:08;23.34;71.82
72202;SHT30;60105;54.956;73.412;2022-08-11T05:44:55;23.39;71.41
72202;SHT30;60105;54.956;73.412;2022-08-11T05:47:41;23.31;71.36
72202;SHT30;60105;54.956;73.412;2022-08-11T05:50:26;23.36;71.42
72202;SHT30;60105;54.956;73.412;2022-08-11T05:53:12;23.46;71.46
72202;SHT30;60105;54.956;73.412;2022-08-11T05:56:03;23.44;71.13
72202;SHT30;60105;54.956;73.412;2022-08-11T05:58:52;23.50;71.34
72202;SHT30;60105;54.956;73.412;2022-08-11T06:01:22;23.57;70.39
72202;SHT30;60105;54.956;73.412;2022-08-11T06:03:51;23.68;70.49
72202;SHT30;60105;54.956;73.412;2022-08-11T06:06:38;23.86;70.08
72202;SHT30;60105;54.956;73.412;2022-08-11T06:09:06;23.91;70.24
72202;SHT30;60105;54.956;73.412;2022-08-11T06:11:37;23.97;70.08
72202;SHT30;60105;54.956;73.412;2022-08-11T06:14:08;24.00;69.53
72202;SHT30;60105;54.956;73.412;2022-08-11T06:16:42;24.04;69.68
72202;SHT30;60105;54.956;73.412;2022-08-11T06:19:12;24.00;69.37
72202;SHT30;60105;54.956;73.412;2022-08-11T06:21:44;24.00;69.32
72202;SHT30;60105;54.956;73.412;2022-08-11T06:24:13;23.94;69.47
72202;SHT30;60105;54.956;73.412;2022-08-11T06:26:48;23.91;69.59
72202;SHT30;60105;54.956;73.412;2022-08-11T06:29:15;24.04;69.18
72202;SHT30;60105;54.956;73.412;2022-08-11T06:31:51;24.13;68.57
72202;SHT30;60105;54.956;73.412;2022-08-11T06:37:18;24.19;68.20
72202;SHT30;60105;54.956;73.412;2022-08-11T06:42:52;24.01;68.08
72202;SHT30;60105;54.956;73.412;2022-08-11T06:45:30;24.01;68.94
72202;SHT30;60105;54.956;73.412;2022-08-11T06:47:58;24.08;68.42
72202;SHT30;60105;54.956;73.412;2022-08-11T06:50:26;24.08;68.69
72202;SHT30;60105;54.956;73.412;2022-08-11T06:53:15;24.12;68.75
72202;SHT30;60105;54.956;73.412;2022-08-11T06:55:45;24.15;68.62
72202;SHT30;60105;54.956;73.412;2022-08-11T06:58:37;24.21;67.86
72202;SHT30;60105;54.956;73.412;2022-08-11T07:02:04;24.18;68.51
72202;SHT30;60105;54.956;73.412;2022-08-11T07:05:13;24.16;68.58
72202;SHT30;60105;54.956;73.412;2022-08-11T07:10:42;24.13;68.30
72202;SHT30;60105;54.956;73.412;2022-08-11T07:13:38;24.08;68.41
72202;SHT30;60105;54.956;73.412;2022-08-11T07:16:33;24.25;67.94
72202;SHT30;60105;54.956;73.412;2022-08-11T07:19:04;24.26;68.45
72202;SHT30;60105;54.956;73.412;2022-08-11T07:21:50;24.39;68.64
72202;SHT30;60105;54.956;73.412;2022-08-11T07:24:39;24.39;67.51
72202;SHT30;60105;54.956;73.412;2022-08-11T07:27:29;24.43;67.28
72202;SHT30;60105;54.956;73.412;2022-08-11T07:30:16;24.52;67.62
72202;SHT30;60105;54.956;73.412;2022-08-11T07:33:09;24.48;67.06
72202;SHT30;60105;54.956;73.412;2022-08-11T07:35:52;24.55;66.94
72202;SHT30;60105;54.956;73.412;2022-08-11T07:38:24;24.52;66.96
72202;SHT30;60105;54.956;73.412;2022-08-11T07:41:19;24.55;66.79
72202;SHT30;60105;54.956;73.412;2022-08-11T07:43:49;24.64;66.80
72202;SHT30;60105;54.956;73.412;2022-08-11T07:46:20;24.63;67.12
72202;SHT30;60105;54.956;73.412;2022-08-11T07:49:08;24.66;67.00
72202;SHT30;60105;54.956;73.412;2022-08-11T07:51:54;24.77;67.01
72202;SHT30;60105;54.956;73.412;2022-08-11T07:54:39;24.79;66.60
72202;SHT30;60105;54.956;73.412;2022-08-11T07:57:09;24.83;66.18
72202;SHT30;60105;54.956;73.412;2022-08-11T07:59:57;24.80;65.67
72202;SHT30;60105;54.956;73.412;2022-08-11T08:02:53;24.84;66.14
72202;SHT30;60105;54.956;73.412;2022-08-11T08:05:47;24.88;65.36
72202;SHT30;60105;54.956;73.412;2022-08-11T08:08:32;24.90;65.95
72202;SHT30;60105;54.956;73.412;2022-08-11T08:11:21;24.90;65.71
72202;SHT30;60105;54.956;73.412;2022-08-11T08:14:09;24.87;65.46
72202;SHT30;60105;54.956;73.412;2022-08-11T08:16:56;24.86;65.88
72202;SHT30;60105;54.956;73.412;2022-08-11T08:19:42;24.92;65.27
72202;SHT30;60105;54.956;73.412;2022-08-11T08:22:15;24.92;65.14
72202;SHT30;60105;54.956;73.412;2022-08-11T08:24:43;24.95;65.70
72202;SHT30;60105;54.956;73.412;2022-08-11T08:27:12;25.00;65.83
72202;SHT30;60105;54.956;73.412;2022-08-11T08:29:44;25.03;65.87
72202;SHT30;60105;54.956;73.412;2022-08-11T08:32:29;25.17;65.65
72202;SHT30;60105;54.956;73.412;2022-08-11T08:34:57;25.18;65.35
72202;SHT30;60105;54.956;73.412;2022-08-11T08:37:25;25.11;65.41
72202;SHT30;60105;54.956;73.412;2022-08-11T08:39:57;25.15;65.00
72202;SHT30;60105;54.956;73.412;2022-08-11T08:42:31;25.22;64.85
72202;SHT30;60105;54.956;73.412;2022-08-11T08:45:06;25.17;65.09
72202;SHT30;60105;54.956;73.412;2022-08-11T08:47:41;25.22;64.37
72202;SHT30;60105;54.956;73.412;2022-08-11T08:50:12;25.12;64.38
72202;SHT30;60105;54.956;73.412;2022-08-11T08:52:46;25.21;65.26
72202;SHT30;60105;54.956;73.412;2022-08-11T08:55:19;25.34;64.95
72202;SHT30;60105;54.956;73.412;2022-08-11T08:57:48;25.42;65.42
72202;SHT30;60105;54.956;73.412;2022-08-11T09:00:16;25.45;64.19
72202;SHT30;60105;54.956;73.412;2022-08-11T09:02:43;25.46;63.52
72202;SHT30;60105;54.956;73.412;2022-08-11T09:05:10;25.38;63.97
72202;SHT30;60105;54.956;73.412;2022-08-11T09:07:37;25.45;64.63
72202;SHT30;60105;54.956;73.412;2022-08-11T09:10:07;25.48;64.32
72202;SHT30;60105;54.956;73.412;2022-08-11T09:12:33;25.45;64.52
72202;SHT30;60105;54.956;73.412;2022-08-11T09:15:03;25.42;64.58
72202;SHT30;60105;54.956;73.412;2022-08-11T09:17:42;25.45;64.41
72202;SHT30;60105;54.956;73.412;2022-08-11T09:20:16;25.38;64.83
72202;SHT30;60105;54.956;73.412;2022-08-11T09:22:44;25.41;65.01
72202;SHT30;60105;54.956;73.412;2022-08-11T09:25:31;25.52;64.68
72202;SHT30;60105;54.956;73.412;2022-08-11T09:28:20;25.49;63.52
72202;SHT30;60105;54.956;73.412;2022-08-11T09:30:51;25.61;63.94
72202;SHT30;60105;54.956;73.412;2022-08-11T09:33:19;25.58;63.75
72202;SHT30;60105;54.956;73.412;2022-08-11T09:35:51;25.66;64.26
72202;SHT30;60105;54.956;73.412;2022-08-11T09:38:19;25.73;63.20
72202;SHT30;60105;54.956;73.412;2022-08-11T09:41:07;25.58;63.63
72202;SHT30;60105;54.956;73.412;2022-08-11T09:43:45;25.43;64.56
72202;SHT30;60105;54.956;73.412;2022-08-11T09:46:31;25.53;64.63
72202;SHT30;60105;54.956;73.412;2022-08-11T09:49:01;25.46;64.47
72202;SHT30;60105;54.956;73.412;2022-08-11T09:51:30;25.49;64.57
72202;SHT30;60105;54.956;73.412;2022-08-11T09:53:59;25.57;64.25
72202;SHT30;60105;54.956;73.412;2022-08-11T09:56:41;25.58;63.96
72202;SHT30;60105;54.956;73.412;2022-08-11T09:59:26;25.58;64.15
72202;SHT30;60105;54.956;73.412;2022-08-11T10:02:00;25.62;64.25
72202;SHT30;60105;54.956;73.412;2022-08-11T10:04:34;25.62;64.22
72202;SHT30;60105;54.956;73.412;2022-08-11T10:07:02;25.61;64.46
72202;SHT30;60105;54.956;73.412;2022-08-11T10:09:37;25.63;63.91
72202;SHT30;60105;54.956;73.412;2022-08-11T10:12:08;25.61;63.89
72202;SHT30;60105;54.956;73.412;2022-08-11T10:14:41;25.59;64.04
72202;SHT30;60105;54.956;73.412;2022-08-11T10:17:31;25.58;63.52
72202;SHT30;60105;54.956;73.412;2022-08-11T10:19:58;25.63;63.63
72202;SHT30;60105;54.956;73.412;2022-08-11T10:22:28;25.63;64.26
72202;SHT30;60105;54.956;73.412;2022-08-11T10:25:14;25.63;64.33
72202;SHT30;60105;54.956;73.412;2022-08-11T10:28:02;25.57;64.34
72202;SHT30;60105;54.956;73.412;2022-08-11T10:30:28;25.57;63.92
72202;SHT30;60105;54.956;73.412;2022-08-11T10:33:19;25.65;63.67
72202;SHT30;60105;54.956;73.412;2022-08-11T10:36:20;25.73;63.81
72202;SHT30;60105;54.956;73.412;2022-08-11T10:38:47;25.69;63.95
72202;SHT30;60105;54.956;73.412;2022-08-11T10:41:18;25.72;63.93
72202;SHT30;60105;54.956;73.412;2022-08-11T10:44:05;25.76;63.74
72202;SHT30;60105;54.956;73.412;2022-08-11T10:46:32;25.82;63.32
72202;SHT30;60105;54.956;73.412;2022-08-11T10:49:22;25.73;63.87
72202;SHT30;60105;54.956;73.412;2022-08-11T10:51:50;25.63;63.88
72202;SHT30;60105;54.956;73.412;2022-08-11T10:54:37;25.61;64.26
72202;SHT30;60105;54.956;73.412;2022-08-11T10:57:23;25.69;63.85
72202;SHT30;60105;54.956;73.412;2022-08-11T11:00:13;25.63;63.87
72202;SHT30;60105;54.956;73.412;2022-08-11T11:02:42;25.53;63.71
72202;SHT30;60105;54.956;73.412;2022-08-11T11:05:23;25.55;63.63
72202;SHT30;60105;54.956;73.412;2022-08-11T11:08:15;25.52;63.93
72202;SHT30;60105;54.956;73.412;2022-08-11T11:11:12;25.59;63.49
72202;SHT30;60105;54.956;73.412;2022-08-11T11:13:48;25.57;63.74
72202;SHT30;60105;54.956;73.412;2022-08-11T11:16:40;25.62;63.85
72202;SHT30;60105;54.956;73.412;2022-08-11T11:19:27;25.65;63.88
72202;SHT30;60105;54.956;73.412;2022-08-11T11:21:54;25.62;64.15
72202;SHT30;60105;54.956;73.412;2022-08-11T11:25:10;25.51;64.19
72202;SHT30;60105;54.956;73.412;2022-08-11T11:30:19;25.46;64.32
72202;SHT30;60105;54.956;73.412;2022-08-11T11:33:12;25.52;64.13
72202;SHT30;60105;54.956;73.412;2022-08-11T11:38:17;25.61;63.52
72202;SHT30;60105;54.956;73.412;2022-08-11T11:40:54;25.42;63.98
72202;SHT30;60105;54.956;73.412;2022-08-11T11:43:41;25.35;64.01
72202;SHT30;60105;54.956;73.412;2022-08-11T11:46:07;25.34;64.46
72202;SHT30;60105;54.956;73.412;2022-08-11T11:48:35;25.31;64.24
72202;SHT30;60105;54.956;73.412;2022-08-11T11:51:12;25.14;64.98
72202;SHT30;60105;54.956;73.412;2022-08-11T11:53:41;25.20;64.98
72202;SHT30;60105;54.956;73.412;2022-08-11T11:56:15;25.17;65.13
72202;SHT30;60105;54.956;73.412;2022-08-11T11:58:42;25.06;65.44
72202;SHT30;60105;54.956;73.412;2022-08-11T12:01:35;25.00;65.44
72202;SHT30;60105;54.956;73.412;2022-08-11T12:04:03;25.06;65.19
72202;SHT30;60105;54.956;73.412;2022-08-11T12:06:33;24.97;65.01
72202;SHT30;60105;54.956;73.412;2022-08-11T12:09:00;24.90;65.74
72202;SHT30;60105;54.956;73.412;2022-08-11T12:11:30;24.95;65.72
72202;SHT30;60105;54.956;73.412;2022-08-11T12:14:18;24.94;65.55
72202;SHT30;60105;54.956;73.412;2022-08-11T12:16:46;24.95;65.55
72202;SHT30;60105;54.956;73.412;2022-08-11T12:19:17;24.88;65.44
72202;SHT30;60105;54.956;73.412;2022-08-11T12:21:47;24.87;65.59
72202;SHT30;60105;54.956;73.412;2022-08-11T12:24:34;24.84;65.27
72202;SHT30;60105;54.956;73.412;2022-08-11T12:27:26;24.70;65.80
72202;SHT30;60105;54.956;73.412;2022-08-11T12:30:01;24.67;65.97
72202;SHT30;60105;54.956;73.412;2022-08-11T12:32:32;24.57;66.41
72202;SHT30;60105;54.956;73.412;2022-08-11T12:35:00;24.55;66.61
72202;SHT30;60105;54.956;73.412;2022-08-11T12:37:29;24.55;66.58
72202;SHT30;60105;54.956;73.412;2022-08-11T12:40:03;24.49;66.61
72202;SHT30;60105;54.956;73.412;2022-08-11T12:42:49;24.42;66.85
72202;SHT30;60105;54.956;73.412;2022-08-11T12:45:35;24.39;66.99
72202;SHT30;60105;54.956;73.412;2022-08-11T12:48:16;24.29;67.07
72202;SHT30;60105;54.956;73.412;2022-08-11T12:51:16;24.33;66.82
72202;SHT30;60105;54.956;73.412;2022-08-11T12:54:16;24.23;67.29
72202;SHT30;60105;54.956;73.412;2022-08-11T12:56:50;24.22;67.63
72202;SHT30;60105;54.956;73.412;2022-08-11T12:59:45;24.04;68.18
72202;SHT30;60105;54.956;73.412;2022-08-11T13:02:35;23.82;68.70
72202;SHT30;60105;54.956;73.412;2022-08-11T13:05:21;23.75;68.88
72202;SHT30;60105;54.956;73.412;2022-08-11T13:07:47;23.71;69.36
72202;SHT30;60105;54.956;73.412;2022-08-11T13:10:19;23.79;68.91
72202;SHT30;60105;54.956;73.412;2022-08-11T13:13:07;23.84;68.78
72202;SHT30;60105;54.956;73.412;2022-08-11T13:15:33;23.79;68.63
72202;SHT30;60105;54.956;73.412;2022-08-11T13:18:03;23.71;68.68
72202;SHT30;60105;54.956;73.412;2022-08-11T13:20:34;23.57;69.28
72202;SHT30;60105;54.956;73.412;2022-08-11T13:23:00;23.58;68.82
72202;SHT30;60105;54.956;73.412;2022-08-11T13:25:29;23.50;69.42
72202;SHT30;60105;54.956;73.412;2022-08-11T13:27:57;23.27;70.14
72202;SHT30;60105;54.956;73.412;2022-08-11T13:30:27;23.27;70.20
72202;SHT30;60105;54.956;73.412;2022-08-11T13:33:18;23.30;71.01
72202;SHT30;60105;54.956;73.412;2022-08-11T13:35:46;23.26;70.22
72202;SHT30;60105;54.956;73.412;2022-08-11T13:38:17;23.02;70.93
72202;SHT30;60105;54.956;73.412;2022-08-11T13:40:44;22.96;71.21
72202;SHT30;60105;54.956;73.412;2022-08-11T13:43:13;22.86;71.34
72202;SHT30;60105;54.956;73.412;2022-08-11T13:45:41;22.79;71.41
72202;SHT30;60105;54.956;73.412;2022-08-11T13:48:09;22.65;71.89
72202;SHT30;60105;54.956;73.412;2022-08-11T13:50:39;22.65;73.19
72202;SHT30;60105;54.956;73.412;2022-08-11T13:53:26;22.69;72.21
72202;SHT30;60105;54.956;73.412;2022-08-11T13:55:53;22.58;72.80
72202;SHT30;60105;54.956;73.412;2022-08-11T13:58:30;22.47;73.04
72202;SHT30;60105;54.956;73.412;2022-08-11T14:00:57;22.41;73.38
72202;SHT30;60105;54.956;73.412;2022-08-11T14:03:26;22.45;72.62
72202;SHT30;60105;54.956;73.412;2022-08-11T14:05:53;22.31;73.49
72202;SHT30;60105;54.956;73.412;2022-08-11T14:08:26;22.33;73.49
72202;SHT30;60105;54.956;73.412;2022-08-11T14:11:00;22.21;72.85
72202;SHT30;60105;54.956;73.412;2022-08-11T14:13:52;22.00;73.35
72202;SHT30;60105;54.956;73.412;2022-08-11T14:16:31;21.92;73.89
72202;SHT30;60105;54.956;73.412;2022-08-11T14:19:03;21.87;74.21
72202;SHT30;60105;54.956;73.412;2022-08-11T14:21:35;21.80;74.14
72202;SHT30;60105;54.956;73.412;2022-08-11T14:24:21;21.72;75.05
72202;SHT30;60105;54.956;73.412;2022-08-11T14:26:48;21.62;74.54
72202;SHT30;60105;54.956;73.412;2022-08-11T14:29:19;21.56;75.07
72202;SHT30;60105;54.956;73.412;2022-08-11T14:31:48;21.55;75.08
72202;SHT30;60105;54.956;73.412;2022-08-11T14:34:18;21.53;74.95
72202;SHT30;60105;54.956;73.412;2022-08-11T14:36:49;21.49;75.21
72202;SHT30;60105;54.956;73.412;2022-08-11T14:39:35;21.50;75.20
72202;SHT30;60105;54.956;73.412;2022-08-11T14:42:04;21.50;75.05
72202;SHT30;60105;54.956;73.412;2022-08-11T14:44:51;21.45;75.26
72202;SHT30;60105;54.956;73.412;2022-08-11T14:47:41;21.34;75.68
72202;SHT30;60105;54.956;73.412;2022-08-11T14:50:19;21.24;75.69
72202;SHT30;60105;54.956;73.412;2022-08-11T14:52:55;21.15;75.88
72202;SHT30;60105;54.956;73.412;2022-08-11T14:55:25;21.11;76.03
72202;SHT30;60105;54.956;73.412;2022-08-11T14:58:14;21.15;75.89
72202;SHT30;60105;54.956;73.412;2022-08-11T15:00:56;21.14;75.96
72202;SHT30;60105;54.956;73.412;2022-08-11T15:03:23;21.08;76.46
72202;SHT30;60105;54.956;73.412;2022-08-11T15:06:00;21.02;76.34
72202;SHT30;60105;54.956;73.412;2022-08-11T15:08:33;21.00;76.41
72202;SHT30;60105;54.956;73.412;2022-08-11T15:11:21;20.98;76.47
72202;SHT30;60105;54.956;73.412;2022-08-11T15:14:08;21.02;76.59
72202;SHT30;60105;54.956;73.412;2022-08-11T15:16:43;21.07;76.35
72202;SHT30;60105;54.956;73.412;2022-08-11T15:19:35;21.08;76.23
72202;SHT30;60105;54.956;73.412;2022-08-11T15:22:02;20.98;76.25
72202;SHT30;60105;54.956;73.412;2022-08-11T15:24:52;20.90;76.54
72202;SHT30;60105;54.956;73.412;2022-08-11T15:27:19;20.88;76.60
72202;SHT30;60105;54.956;73.412;2022-08-11T15:30:15;20.85;76.60
72202;SHT30;60105;54.956;73.412;2022-08-11T15:33:05;20.81;76.48
72202;SHT30;60105;54.956;73.412;2022-08-11T15:35:52;20.80;76.55
72202;SHT30;60105;54.956;73.412;2022-08-11T15:38:59;20.76;76.70
72202;SHT30;60105;54.956;73.412;2022-08-11T15:41:38;20.83;76.53
72202;SHT30;60105;54.956;73.412;2022-08-11T15:44:36;20.73;76.71
72202;SHT30;60105;54.956;73.412;2022-08-11T15:47:26;20.64;76.96
72202;SHT30;60105;54.956;73.412;2022-08-11T15:49:54;20.67;76.80
72202;SHT30;60105;54.956;73.412;2022-08-11T15:52:29;20.66;76.89
72202;SHT30;60105;54.956;73.412;2022-08-11T15:54:57;20.59;77.18
72202;SHT30;60105;54.956;73.412;2022-08-11T15:57:28;20.53;77.34
72202;SHT30;60105;54.956;73.412;2022-08-11T16:00:24;20.54;77.32
72202;SHT30;60105;54.956;73.412;2022-08-11T16:03:11;20.49;77.31
72202;SHT30;60105;54.956;73.412;2022-08-11T16:05:58;20.50;77.36
72202;SHT30;60105;54.956;73.412;2022-08-11T16:08:29;20.46;77.50
72202;SHT30;60105;54.956;73.412;2022-08-11T16:11:02;20.44;77.65
72202;SHT30;60105;54.956;73.412;2022-08-11T16:13:31;20.49;77.48
72202;SHT30;60105;54.956;73.412;2022-08-11T16:15:58;20.50;77.34
72202;SHT30;60105;54.956;73.412;2022-08-11T16:18:53;20.52;77.35
72202;SHT30;60105;54.956;73.412;2022-08-11T16:21:25;20.43;77.66
72202;SHT30;60105;54.956;73.412;2022-08-11T16:23:54;20.53;77.49
72202;SHT30;60105;54.956;73.412;2022-08-11T16:26:26;20.49;77.58
72202;SHT30;60105;54.956;73.412;2022-08-11T16:28:56;20.50;77.66
72202;SHT30;60105;54.956;73.412;2022-08-11T16:31:24;20.50;77.41
72202;SHT30;60105;54.956;73.412;2022-08-11T16:34:02;20.49;77.48
72202;SHT30;60105;54.956;73.412;2022-08-11T16:36:30;20.44;77.53
72202;SHT30;60105;54.956;73.412;2022-08-11T16:39:27;20.40;77.74
72202;SHT30;60105;54.956;73.412;2022-08-11T16:41:53;20.44;77.61
72202;SHT30;60105;54.956;73.412;2022-08-11T16:44:42;20.47;77.28
72202;SHT30;60105;54.956;73.412;2022-08-11T16:47:28;20.36;77.57
72202;SHT30;60105;54.956;73.412;2022-08-11T16:49:58;20.33;77.86
72202;SHT30;60105;54.956;73.412;2022-08-11T16:52:24;20.37;77.85
72202;SHT30;60105;54.956;73.412;2022-08-11T16:54:50;20.40;77.71
72202;SHT30;60105;54.956;73.412;2022-08-11T16:57:25;20.44;77.56
72202;SHT30;60105;54.956;73.412;2022-08-11T17:00:19;20.47;77.38
72202;SHT30;60105;54.956;73.412;2022-08-11T17:02:57;20.47;77.24
72202;SHT30;60105;54.956;73.412;2022-08-11T17:05:51;20.53;77.34
72202;SHT30;60105;54.956;73.412;2022-08-11T17:08:42;20.47;77.48
72202;SHT30;60105;54.956;73.412;2022-08-11T17:11:45;20.40;77.62
72202;SHT30;60105;54.956;73.412;2022-08-11T17:14:41;20.40;77.66
72202;SHT30;60105;54.956;73.412;2022-08-11T17:17:14;20.42;77.55
72202;SHT30;60105;54.956;73.412;2022-08-11T17:19:52;20.39;77.67
72202;SHT30;60105;54.956;73.412;2022-08-11T17:22:19;20.43;77.69
72202;SHT30;60105;54.956;73.412;2022-08-11T17:25:07;20.46;77.63
72202;SHT30;60105;54.956;73.412;2022-08-11T17:27:34;20.49;77.61
72202;SHT30;60105;54.956;73.412;2022-08-11T17:30:04;20.49;77.69
72202;SHT30;60105;54.956;73.412;2022-08-11T17:32:50;20.46;77.71
72202;SHT30;60105;54.956;73.412;2022-08-11T17:35:38;20.46;77.50
72202;SHT30;60105;54.956;73.412;2022-08-11T17:38:16;20.49;77.45
72202;SHT30;60105;54.956;73.412;2022-08-11T17:40:51;20.44;77.46
72202;SHT30;60105;54.956;73.412;2022-08-11T17:43:47;20.46;77.48
72202;SHT30;60105;54.956;73.412;2022-08-11T17:46:33;20.44;77.58
72202;SHT30;60105;54.956;73.412;2022-08-11T17:49:18;20.42;77.84
72202;SHT30;60105;54.956;73.412;2022-08-11T17:51:47;20.42;77.65
72202;SHT30;60105;54.956;73.412;2022-08-11T17:54:34;20.43;77.57
72202;SHT30;60105;54.956;73.412;2022-08-11T17:57:21;20.42;77.58
72202;SHT30;60105;54.956;73.412;2022-08-11T18:00:07;20.43;77.63
72202;SHT30;60105;54.956;73.412;2022-08-11T18:02:44;20.42;77.67
72202;SHT30;60105;54.956;73.412;2022-08-11T18:05:32;20.39;77.81
72202;SHT30;60105;54.956;73.412;2022-08-11T18:08:02;20.40;77.82
72202;SHT30;60105;54.956;73.412;2022-08-11T18:10:48;20.40;77.81
72202;SHT30;60105;54.956;73.412;2022-08-11T18:13:36;20.34;77.88
72202;SHT30;60105;54.956;73.412;2022-08-11T18:16:21;20.30;78.22
72202;SHT30;60105;54.956;73.412;2022-08-11T18:19:07;20.34;78.17
72202;SHT30;60105;54.956;73.412;2022-08-11T18:21:58;20.40;77.95
72202;SHT30;60105;54.956;73.412;2022-08-11T18:24:49;20.42;77.93
72202;SHT30;60105;54.956;73.412;2022-08-11T18:27:37;20.37;78.05
72202;SHT30;60105;54.956;73.412;2022-08-11T18:30:24;20.40;77.88
72202;SHT30;60105;54.956;73.412;2022-08-11T18:33:12;20.43;77.95
72202;SHT30;60105;54.956;73.412;2022-08-11T18:35:59;20.46;77.90
72202;SHT30;60105;54.956;73.412;2022-08-11T18:38:46;20.46;77.89
72202;SHT30;60105;54.956;73.412;2022-08-11T18:41:34;20.52;77.78
72202;SHT30;60105;54.956;73.412;2022-08-11T18:44:23;20.47;77.78
72202;SHT30;60105;54.956;73.412;2022-08-11T18:47:12;20.50;77.72
72202;SHT30;60105;54.956;73.412;2022-08-11T18:49:59;20.54;77.65
72202;SHT30;60105;54.956;73.412;2022-08-11T18:52:51;20.53;77.49
72202;SHT30;60105;54.956;73.412;2022-08-11T18:55:36;20.50;77.54
72202;SHT30;60105;54.956;73.412;2022-08-11T18:58:27;20.53;77.59
72202;SHT30;60105;54.956;73.412;2022-08-11T19:01:14;20.52;77.39
72202;SHT30;60105;54.956;73.412;2022-08-11T19:04:01;20.52;77.33
72202;SHT30;60105;54.956;73.412;2022-08-11T19:06:48;20.56;77.34
72202;SHT30;60105;54.956;73.412;2022-08-11T19:09:35;20.46;77.52
72202;SHT30;60105;54.956;73.412;2022-08-11T19:12:36;20.52;77.54
72202;SHT30;60105;54.956;73.412;2022-08-11T19:15:34;20.49;77.69
72202;SHT30;60105;54.956;73.412;2022-08-11T19:18:24;20.53;77.54
72202;SHT30;60105;54.956;73.412;2022-08-11T19:21:15;20.54;77.71
72202;SHT30;60105;54.956;73.412;2022-08-11T19:24:04;20.59;77.17
72202;SHT30;60105;54.956;73.412;2022-08-11T19:26:59;20.56;77.17
72202;SHT30;60105;54.956;73.412;2022-08-11T19:29:44;20.53;77.24
72202;SHT30;60105;54.956;73.412;2022-08-11T19:32:30;20.56;77.11
72202;SHT30;60105;54.956;73.412;2022-08-11T19:35:16;20.53;76.88
72202;SHT30;60105;54.956;73.412;2022-08-11T19:38:08;20.53;76.81